sensor_id;sensor_type;location;lat;lon;timestamp;temperature;humidity
4097;DHT22;2062;50.694;7.246;2023-03-25T00:02:14;10.20;50.00
4097;DHT22;2062;50.694;7.246;2023-03-25T00:04:41;10.20;50.10
4097;DHT22;2062;50.694;7.246;2023-03-25T00:07:07;10.20;50.10
4097;DHT22;2062;50.694;7.246;2023-03-25T00:09:35;10.10;50.00
4097;DHT22;2062;50.694;7.246;2023-03-25T00:12:02;10.10;50.10
4097;DHT22;2062;50.694;7.246;2023-03-25T00:14:31;10.10;50.10
4097;DHT22;2062;50.694;7.246;2023-03-25T00:16:58;10.10;50.00
4097;DHT22;2062;50.694;7.246;2023-03-25T00:19:25;10.10;50.10
4097;DHT22;2062;50.694;7.246;2023-03-25T00:21:52;10.00;49.90
4097;DHT22;2062;50.694;7.246;2023-03-25T00:24:19;10.00;50.10
4097;DHT22;2062;50.694;7.246;2023-03-25T00:26:46;10.00;50.10
4097;DHT22;2062;50.694;7.246;2023-03-25T00:29:14;10.00;50.10
4097;DHT22;2062;50.694;7.246;2023-03-25T00:31:43;9.90;49.90
4097;DHT22;2062;50.694;7.246;2023-03-25T00:34:10;9.90;49.90
4097;DHT22;2062;50.694;7.246;2023-03-25T00:36:39;9.90;50.00
4097;DHT22;2062;50.694;7.246;2023-03-25T00:39:06;9.90;50.10
4097;DHT22;2062;50.694;7.246;2023-03-25T00:41:33;9.80;50.20
4097;DHT22;2062;50.694;7.246;2023-03-25T00:44:02;9.80;50.30
4097;DHT22;2062;50.694;7.246;2023-03-25T00:46:31;9.80;50.30
4097;DHT22;2062;50.694;7.246;2023-03-25T00:49:00;9.70;50.40
4097;DHT22;2062;50.694;7.246;2023-03-25T00:51:27;9.70;50.30
4097;DHT22;2062;50.694;7.246;2023-03-25T00:53:56;9.70;50.30
4097;DHT22;2062;50.694;7.246;2023-03-25T00:56:25;9.70;50.40
4097;DHT22;2062;50.694;7.246;2023-03-25T00:58:52;9.70;50.40
4097;DHT22;2062;50.694;7.246;2023-03-25T01:01:20;9.70;50.50
4097;DHT22;2062;50.694;7.246;2023-03-25T01:03:52;9.70;50.50
4097;DHT22;2062;50.694;7.246;2023-03-25T01:06:24;9.70;50.60
4097;DHT22;2062;50.694;7.246;2023-03-25T01:08:55;9.70;50.50
4097;DHT22;2062;50.694;7.246;2023-03-25T01:11:24;9.70;50.50
4097;DHT22;2062;50.694;7.246;2023-03-25T01:13:53;9.60;50.50
4097;DHT22;2062;50.694;7.246;2023-03-25T01:16:20;9.70;50.60
4097;DHT22;2062;50.694;7.246;2023-03-25T01:18:47;9.70;50.70
4097;DHT22;2062;50.694;7.246;2023-03-25T01:21:14;9.70;50.60
4097;DHT22;2062;50.694;7.246;2023-03-25T01:23:43;9.70;50.60
4097;DHT22;2062;50.694;7.246;2023-03-25T01:26:10;9.70;50.80
4097;DHT22;2062;50.694;7.246;2023-03-25T01:28:38;9.70;50.70
4097;DHT22;2062;50.694;7.246;2023-03-25T01:31:08;9.70;51.00
4097;DHT22;2062;50.694;7.246;2023-03-25T01:33:36;9.70;50.90
4097;DHT22;2062;50.694;7.246;2023-03-25T01:36:04;9.70;51.00
4097;DHT22;2062;50.694;7.246;2023-03-25T01:38:34;9.70;50.90
4097;DHT22;2062;50.694;7.246;2023-03-25T01:41:03;9.70;50.90
4097;DHT22;2062;50.694;7.246;2023-03-25T01:43:31;9.70;50.70
4097;DHT22;2062;50.694;7.246;2023-03-25T01:45:58;9.70;50.80
4097;DHT22;2062;50.694;7.246;2023-03-25T01:48:28;9.70;51.00
4097;DHT22;2062;50.694;7.246;2023-03-25T01:51:01;9.70;51.10
4097;DHT22;2062;50.694;7.246;2023-03-25T01:53:29;9.70;51.00
4097;DHT22;2062;50.694;7.246;2023-03-25T01:55:59;9.70;51.20
4097;DHT22;2062;50.694;7.246;2023-03-25T01:58:30;9.70;51.40
4097;DHT22;2062;50.694;7.246;2023-03-25T02:00:57;9.70;51.40
4097;DHT22;2062;50.694;7.246;2023-03-25T02:03:26;9.70;51.30
4097;DHT22;2062;50.694;7.246;2023-03-25T02:05:58;9.70;51.30
4097;DHT22;2062;50.694;7.246;2023-03-25T02:08:29;9.70;51.30
4097;DHT22;2062;50.694;7.246;2023-03-25T02:10:58;9.70;51.50
4097;DHT22;2062;50.694;7.246;2023-03-25T02:13:25;9.70;51.30
4097;DHT22;2062;50.694;7.246;2023-03-25T02:16:09;9.70;51.60
4097;DHT22;2062;50.694;7.246;2023-03-25T02:18:44;9.70;51.50
4097;DHT22;2062;50.694;7.246;2023-03-25T02:21:52;9.70;51.60
4097;DHT22;2062;50.694;7.246;2023-03-25T02:24:38;9.70;52.00
4097;DHT22;2062;50.694;7.246;2023-03-25T02:27:24;9.70;52.00
4097;DHT22;2062;50.694;7.246;2023-03-25T02:30:02;9.70;52.20
4097;DHT22;2062;50.694;7.246;2023-03-25T02:32:52;9.70;52.30
4097;DHT22;2062;50.694;7.246;2023-03-25T02:35:31;9.70;52.30
4097;DHT22;2062;50.694;7.246;2023-03-25T02:38:30;9.60;52.20
4097;DHT22;2062;50.694;7.246;2023-03-25T02:41:04;9.60;52.60
4097;DHT22;2062;50.694;7.246;2023-03-25T02:43:37;9.60;52.40
4097;DHT22;2062;50.694;7.246;2023-03-25T02:46:10;9.60;52.60
4097;DHT22;2062;50.694;7.246;2023-03-25T02:48:41;9.60;52.50
4097;DHT22;2062;50.694;7.246;2023-03-25T02:51:13;9.60;52.50
4097;DHT22;2062;50.694;7.246;2023-03-25T02:53:45;9.60;52.40
4097;DHT22;2062;50.694;7.246;2023-03-25T02:56:15;9.60;53.00
4097;DHT22;2062;50.694;7.246;2023-03-25T02:58:47;9.60;52.80
4097;DHT22;2062;50.694;7.246;2023-03-25T03:01:16;9.60;52.80
4097;DHT22;2062;50.694;7.246;2023-03-25T03:03:47;9.50;52.90
4097;DHT22;2062;50.694;7.246;2023-03-25T03:06:16;9.50;52.90
4097;DHT22;2062;50.694;7.246;2023-03-25T03:08:55;9.60;53.10
4097;DHT22;2062;50.694;7.246;2023-03-25T03:11:27;9.50;52.90
4097;DHT22;2062;50.694;7.246;2023-03-25T03:14:12;9.50;53.00
4097;DHT22;2062;50.694;7.246;2023-03-25T03:16:47;9.50;53.30
4097;DHT22;2062;50.694;7.246;2023-03-25T03:19:33;9.50;53.20
4097;DHT22;2062;50.694;7.246;2023-03-25T03:22:19;9.50;53.20
4097;DHT22;2062;50.694;7.246;2023-03-25T03:24:57;9.50;53.20
4097;DHT22;2062;50.694;7.246;2023-03-25T03:27:29;9.50;53.20
4097;DHT22;2062;50.694;7.246;2023-03-25T03:30:04;9.50;53.10
4097;DHT22;2062;50.694;7.246;2023-03-25T03:32:36;9.50;53.10
4097;DHT22;2062;50.694;7.246;2023-03-25T03:35:10;9.50;52.80
4097;DHT22;2062;50.694;7.246;2023-03-25T03:37:41;9.40;52.70
4097;DHT22;2062;50.694;7.246;2023-03-25T03:40:14;9.40;52.70
4097;DHT22;2062;50.694;7.246;2023-03-25T03:42:44;9.40;52.80
4097;DHT22;2062;50.694;7.246;2023-03-25T03:45:18;9.40;52.60
4097;DHT22;2062;50.694;7.246;2023-03-25T03:47:50;9.40;52.80
4097;DHT22;2062;50.694;7.246;2023-03-25T03:50:20;9.40;52.60
4097;DHT22;2062;50.694;7.246;2023-03-25T03:52:51;9.40;52.60
4097;DHT22;2062;50.694;7.246;2023-03-25T03:55:29;9.40;52.50
4097;DHT22;2062;50.694;7.246;2023-03-25T03:57:59;9.40;52.60
4097;DHT22;2062;50.694;7.246;2023-03-25T04:00:31;9.40;52.30
4097;DHT22;2062;50.694;7.246;2023-03-25T04:03:03;9.40;52.30
4097;DHT22;2062;50.694;7.246;2023-03-25T04:05:35;9.40;52.20
4097;DHT22;2062;50.694;7.246;2023-03-25T04:08:06;9.30;52.20
4097;DHT22;2062;50.694;7.246;2023-03-25T04:10:40;9.30;52.20
4097;DHT22;2062;50.694;7.246;2023-03-25T04:13:12;9.40;52.10
4097;DHT22;2062;50.694;7.246;2023-03-25T04:15:40;9.30;52.10
4097;DHT22;2062;50.694;7.246;2023-03-25T04:18:07;9.30;52.10
4097;DHT22;2062;50.694;7.246;2023-03-25T04:20:34;9.30;52.10
4097;DHT22;2062;50.694;7.246;2023-03-25T04:23:03;9.40;52.10
4097;DHT22;2062;50.694;7.246;2023-03-25T04:25:34;9.30;52.10
4097;DHT22;2062;50.694;7.246;2023-03-25T04:28:02;9.40;52.10
4097;DHT22;2062;50.694;7.246;2023-03-25T04:30:29;9.30;52.00
4097;DHT22;2062;50.694;7.246;2023-03-25T04:32:56;9.30;52.00
4097;DHT22;2062;50.694;7.246;2023-03-25T04:35:25;9.30;52.00
4097;DHT22;2062;50.694;7.246;2023-03-25T04:37:52;9.30;52.00
4097;DHT22;2062;50.694;7.246;2023-03-25T04:40:21;9.30;51.90
4097;DHT22;2062;50.694;7.246;2023-03-25T04:42:50;9.30;51.90
4097;DHT22;2062;50.694;7.246;2023-03-25T04:45:19;9.30;51.80
4097;DHT22;2062;50.694;7.246;2023-03-25T04:47:47;9.30;51.80
4097;DHT22;2062;50.694;7.246;2023-03-25T04:50:20;9.20;51.70
4097;DHT22;2062;50.694;7.246;2023-03-25T04:52:47;9.30;51.70
4097;DHT22;2062;50.694;7.246;2023-03-25T04:55:15;9.20;51.60
4097;DHT22;2062;50.694;7.246;2023-03-25T04:57:44;9.20;51.70
4097;DHT22;2062;50.694;7.246;2023-03-25T05:00:13;9.20;51.70
4097;DHT22;2062;50.694;7.246;2023-03-25T05:02:45;9.20;51.70
4097;DHT22;2062;50.694;7.246;2023-03-25T05:05:12;9.20;51.70
4097;DHT22;2062;50.694;7.246;2023-03-25T05:07:43;9.20;51.70
4097;DHT22;2062;50.694;7.246;2023-03-25T05:10:12;9.20;51.70
4097;DHT22;2062;50.694;7.246;2023-03-25T05:12:39;9.10;51.70
4097;DHT22;2062;50.694;7.246;2023-03-25T05:15:06;9.20;51.80
4097;DHT22;2062;50.694;7.246;2023-03-25T05:17:33;9.10;51.60
4097;DHT22;2062;50.694;7.246;2023-03-25T05:20:02;9.10;51.70
4097;DHT22;2062;50.694;7.246;2023-03-25T05:22:31;9.10;51.60
4097;DHT22;2062;50.694;7.246;2023-03-25T05:24:58;9.10;51.70
4097;DHT22;2062;50.694;7.246;2023-03-25T05:27:27;9.10;51.60
4097;DHT22;2062;50.694;7.246;2023-03-25T05:29:55;9.10;51.70
4097;DHT22;2062;50.694;7.246;2023-03-25T05:32:23;9.00;51.50
4097;DHT22;2062;50.694;7.246;2023-03-25T05:34:50;9.00;51.60
4097;DHT22;2062;50.694;7.246;2023-03-25T05:37:19;9.00;51.70
4097;DHT22;2062;50.694;7.246;2023-03-25T05:39:46;9.00;51.70
4097;DHT22;2062;50.694;7.246;2023-03-25T05:42:13;9.00;51.80
4097;DHT22;2062;50.694;7.246;2023-03-25T05:44:40;9.00;51.80
4097;DHT22;2062;50.694;7.246;2023-03-25T05:47:17;9.00;51.90
4097;DHT22;2062;50.694;7.246;2023-03-25T05:49:46;9.00;51.80
4097;DHT22;2062;50.694;7.246;2023-03-25T05:52:13;8.90;51.80
4097;DHT22;2062;50.694;7.246;2023-03-25T05:54:43;9.00;51.70
4097;DHT22;2062;50.694;7.246;2023-03-25T05:57:10;9.00;52.10
4097;DHT22;2062;50.694;7.246;2023-03-25T05:59:37;8.90;52.00
4097;DHT22;2062;50.694;7.246;2023-03-25T06:02:05;8.90;52.00
4097;DHT22;2062;50.694;7.246;2023-03-25T06:04:33;8.90;52.00
4097;DHT22;2062;50.694;7.246;2023-03-25T06:07:05;8.90;51.90
4097;DHT22;2062;50.694;7.246;2023-03-25T06:09:34;9.00;52.00
4097;DHT22;2062;50.694;7.246;2023-03-25T06:12:03;8.90;52.20
4097;DHT22;2062;50.694;7.246;2023-03-25T06:14:30;8.90;52.40
4097;DHT22;2062;50.694;7.246;2023-03-25T06:16:57;8.90;52.10
4097;DHT22;2062;50.694;7.246;2023-03-25T06:19:24;8.90;52.00
4097;DHT22;2062;50.694;7.246;2023-03-25T06:21:51;8.70;52.10
4097;DHT22;2062;50.694;7.246;2023-03-25T06:24:19;8.90;52.20
4097;DHT22;2062;50.694;7.246;2023-03-25T06:26:46;9.00;52.20
4097;DHT22;2062;50.694;7.246;2023-03-25T06:29:15;9.00;52.20
4097;DHT22;2062;50.694;7.246;2023-03-25T06:31:42;9.00;52.30
4097;DHT22;2062;50.694;7.246;2023-03-25T06:34:08;9.00;52.30
4097;DHT22;2062;50.694;7.246;2023-03-25T06:36:35;9.00;52.20
4097;DHT22;2062;50.694;7.246;2023-03-25T06:39:02;9.10;52.30
4097;DHT22;2062;50.694;7.246;2023-03-25T06:41:31;9.10;52.30
4097;DHT22;2062;50.694;7.246;2023-03-25T06:44:00;9.10;52.30
4097;DHT22;2062;50.694;7.246;2023-03-25T06:46:28;9.10;52.30
4097;DHT22;2062;50.694;7.246;2023-03-25T06:48:55;9.10;52.40
4097;DHT22;2062;50.694;7.246;2023-03-25T06:51:22;9.20;52.60
4097;DHT22;2062;50.694;7.246;2023-03-25T06:53:49;9.20;52.50
4097;DHT22;2062;50.694;7.246;2023-03-25T06:56:15;9.30;52.60
4097;DHT22;2062;50.694;7.246;2023-03-25T06:58:42;9.30;52.80
4097;DHT22;2062;50.694;7.246;2023-03-25T07:01:09;9.40;52.70
4097;DHT22;2062;50.694;7.246;2023-03-25T07:03:37;9.50;53.50
4097;DHT22;2062;50.694;7.246;2023-03-25T07:06:05;9.60;52.70
4097;DHT22;2062;50.694;7.246;2023-03-25T07:08:33;9.70;52.70
4097;DHT22;2062;50.694;7.246;2023-03-25T07:11:00;9.70;52.60
4097;DHT22;2062;50.694;7.246;2023-03-25T07:13:27;9.80;52.60
4097;DHT22;2062;50.694;7.246;2023-03-25T07:15:56;9.80;52.50
4097;DHT22;2062;50.694;7.246;2023-03-25T07:18:23;9.80;52.50
4097;DHT22;2062;50.694;7.246;2023-03-25T07:20:51;9.90;52.70
4097;DHT22;2062;50.694;7.246;2023-03-25T07:23:18;9.90;52.70
4097;DHT22;2062;50.694;7.246;2023-03-25T07:25:45;9.90;52.90
4097;DHT22;2062;50.694;7.246;2023-03-25T07:28:18;9.90;52.80
4097;DHT22;2062;50.694;7.246;2023-03-25T07:30:45;10.00;52.90
4097;DHT22;2062;50.694;7.246;2023-03-25T07:33:12;9.90;52.90
4097;DHT22;2062;50.694;7.246;2023-03-25T07:35:39;9.90;52.90
4097;DHT22;2062;50.694;7.246;2023-03-25T07:38:07;9.90;52.90
4097;DHT22;2062;50.694;7.246;2023-03-25T07:40:35;9.90;53.00
4097;DHT22;2062;50.694;7.246;2023-03-25T07:43:01;9.90;53.00
4097;DHT22;2062;50.694;7.246;2023-03-25T07:45:28;9.90;53.10
4097;DHT22;2062;50.694;7.246;2023-03-25T07:47:56;9.90;53.20
4097;DHT22;2062;50.694;7.246;2023-03-25T07:50:22;9.90;53.20
4097;DHT22;2062;50.694;7.246;2023-03-25T07:52:49;9.90;53.30
4097;DHT22;2062;50.694;7.246;2023-03-25T07:55:17;9.90;53.70
4097;DHT22;2062;50.694;7.246;2023-03-25T07:57:44;9.90;53.50
4097;DHT22;2062;50.694;7.246;2023-03-25T08:00:12;9.80;53.30
4097;DHT22;2062;50.694;7.246;2023-03-25T08:02:39;9.80;53.20
4097;DHT22;2062;50.694;7.246;2023-03-25T08:05:07;9.80;53.20
4097;DHT22;2062;50.694;7.246;2023-03-25T08:07:34;9.70;53.20
4097;DHT22;2062;50.694;7.246;2023-03-25T08:10:00;9.70;53.20
4097;DHT22;2062;50.694;7.246;2023-03-25T08:12:29;9.60;53.10
4097;DHT22;2062;50.694;7.246;2023-03-25T08:14:55;9.60;53.10
4097;DHT22;2062;50.694;7.246;2023-03-25T08:17:22;9.60;53.00
4097;DHT22;2062;50.694;7.246;2023-03-25T08:19:49;9.60;53.00
4097;DHT22;2062;50.694;7.246;2023-03-25T08:22:16;9.50;53.00
4097;DHT22;2062;50.694;7.246;2023-03-25T08:24:43;9.50;52.70
4097;DHT22;2062;50.694;7.246;2023-03-25T08:27:10;9.40;52.70
4097;DHT22;2062;50.694;7.246;2023-03-25T08:29:38;9.40;52.80
4097;DHT22;2062;50.694;7.246;2023-03-25T08:32:06;9.40;52.80
4097;DHT22;2062;50.694;7.246;2023-03-25T08:34:33;9.30;52.80
4097;DHT22;2062;50.694;7.246;2023-03-25T08:37:04;9.40;52.80
4097;DHT22;2062;50.694;7.246;2023-03-25T08:39:32;9.30;52.70
4097;DHT22;2062;50.694;7.246;2023-03-25T08:42:04;9.30;52.80
4097;DHT22;2062;50.694;7.246;2023-03-25T08:44:31;9.30;53.20
4097;DHT22;2062;50.694;7.246;2023-03-25T08:46:59;9.40;53.10
4097;DHT22;2062;50.694;7.246;2023-03-25T08:49:26;9.50;53.90
4097;DHT22;2062;50.694;7.246;2023-03-25T08:51:53;9.70;54.40
4097;DHT22;2062;50.694;7.246;2023-03-25T08:54:22;9.90;54.80
4097;DHT22;2062;50.694;7.246;2023-03-25T08:56:49;10.10;54.60
4097;DHT22;2062;50.694;7.246;2023-03-25T08:59:16;10.50;55.00
4097;DHT22;2062;50.694;7.246;2023-03-25T09:01:42;10.70;55.20
4097;DHT22;2062;50.694;7.246;2023-03-25T09:04:11;11.00;54.90
4097;DHT22;2062;50.694;7.246;2023-03-25T09:06:38;11.40;54.80
4097;DHT22;2062;50.694;7.246;2023-03-25T09:09:13;11.60;54.40
4097;DHT22;2062;50.694;7.246;2023-03-25T09:11:40;12.00;54.00
4097;DHT22;2062;50.694;7.246;2023-03-25T09:14:07;12.20;53.60
4097;DHT22;2062;50.694;7.246;2023-03-25T09:16:34;12.40;53.00
4097;DHT22;2062;50.694;7.246;2023-03-25T09:19:02;12.70;52.90
4097;DHT22;2062;50.694;7.246;2023-03-25T09:21:30;13.00;52.50
4097;DHT22;2062;50.694;7.246;2023-03-25T09:23:57;13.20;51.60
4097;DHT22;2062;50.694;7.246;2023-03-25T09:26:24;13.30;50.80
4097;DHT22;2062;50.694;7.246;2023-03-25T09:28:51;13.40;50.60
4097;DHT22;2062;50.694;7.246;2023-03-25T09:31:20;13.50;49.80
4097;DHT22;2062;50.694;7.246;2023-03-25T09:33:47;13.50;50.10
4097;DHT22;2062;50.694;7.246;2023-03-25T09:36:14;13.60;49.30
4097;DHT22;2062;50.694;7.246;2023-03-25T09:38:42;13.70;48.80
4097;DHT22;2062;50.694;7.246;2023-03-25T09:41:25;13.60;48.60
4097;DHT22;2062;50.694;7.246;2023-03-25T09:44:00;13.70;48.90
4097;DHT22;2062;50.694;7.246;2023-03-25T09:46:28;13.70;48.30
4097;DHT22;2062;50.694;7.246;2023-03-25T09:48:55;13.70;48.00
4097;DHT22;2062;50.694;7.246;2023-03-25T09:51:30;13.60;47.70
4097;DHT22;2062;50.694;7.246;2023-03-25T09:54:03;13.60;47.80
4097;DHT22;2062;50.694;7.246;2023-03-25T09:56:36;13.60;47.90
4097;DHT22;2062;50.694;7.246;2023-03-25T09:59:05;13.60;47.50
4097;DHT22;2062;50.694;7.246;2023-03-25T10:01:40;13.60;47.50
4097;DHT22;2062;50.694;7.246;2023-03-25T10:04:44;13.50;47.30
4097;DHT22;2062;50.694;7.246;2023-03-25T10:07:27;13.50;47.00
4097;DHT22;2062;50.694;7.246;2023-03-25T10:10:02;13.40;46.50
4097;DHT22;2062;50.694;7.246;2023-03-25T10:12:39;13.40;47.00
4097;DHT22;2062;50.694;7.246;2023-03-25T10:15:16;13.30;46.90
4097;DHT22;2062;50.694;7.246;2023-03-25T10:17:55;13.30;46.70
4097;DHT22;2062;50.694;7.246;2023-03-25T10:20:34;13.20;46.40
4097;DHT22;2062;50.694;7.246;2023-03-25T10:23:12;13.20;46.70
4097;DHT22;2062;50.694;7.246;2023-03-25T10:25:44;13.10;46.60
4097;DHT22;2062;50.694;7.246;2023-03-25T10:28:16;13.10;46.60
4097;DHT22;2062;50.694;7.246;2023-03-25T10:30:46;13.00;46.70
4097;DHT22;2062;50.694;7.246;2023-03-25T10:33:17;13.00;46.70
4097;DHT22;2062;50.694;7.246;2023-03-25T10:35:47;13.00;45.80
4097;DHT22;2062;50.694;7.246;2023-03-25T10:38:16;12.90;46.40
4097;DHT22;2062;50.694;7.246;2023-03-25T10:40:48;12.90;46.40
4097;DHT22;2062;50.694;7.246;2023-03-25T10:43:22;12.90;46.40
4097;DHT22;2062;50.694;7.246;2023-03-25T10:45:53;12.80;46.30
4097;DHT22;2062;50.694;7.246;2023-03-25T10:48:24;12.80;46.60
4097;DHT22;2062;50.694;7.246;2023-03-25T10:50:58;12.70;46.60
4097;DHT22;2062;50.694;7.246;2023-03-25T10:53:27;12.70;46.80
4097;DHT22;2062;50.694;7.246;2023-03-25T10:55:58;12.60;46.50
4097;DHT22;2062;50.694;7.246;2023-03-25T10:58:29;12.60;46.80
4097;DHT22;2062;50.694;7.246;2023-03-25T11:00:58;12.60;46.40
4097;DHT22;2062;50.694;7.246;2023-03-25T11:03:29;12.60;46.80
4097;DHT22;2062;50.694;7.246;2023-03-25T11:05:57;12.60;47.70
4097;DHT22;2062;50.694;7.246;2023-03-25T11:08:24;12.60;47.30
4097;DHT22;2062;50.694;7.246;2023-03-25T11:10:53;12.60;47.20
4097;DHT22;2062;50.694;7.246;2023-03-25T11:13:26;12.60;47.10
4097;DHT22;2062;50.694;7.246;2023-03-25T11:15:57;12.60;47.30
4097;DHT22;2062;50.694;7.246;2023-03-25T11:18:27;12.60;47.30
4097;DHT22;2062;50.694;7.246;2023-03-25T11:20:58;12.60;47.10
4097;DHT22;2062;50.694;7.246;2023-03-25T11:23:29;12.60;47.00
4097;DHT22;2062;50.694;7.246;2023-03-25T11:26:01;12.70;47.20
4097;DHT22;2062;50.694;7.246;2023-03-25T11:28:35;12.70;47.00
4097;DHT22;2062;50.694;7.246;2023-03-25T11:31:08;12.70;46.90
4097;DHT22;2062;50.694;7.246;2023-03-25T11:33:37;12.70;47.00
4097;DHT22;2062;50.694;7.246;2023-03-25T11:36:16;12.70;47.10
4097;DHT22;2062;50.694;7.246;2023-03-25T11:38:51;12.70;47.20
4097;DHT22;2062;50.694;7.246;2023-03-25T11:44:50;12.70;47.10
4097;DHT22;2062;50.694;7.246;2023-03-25T11:50:44;12.80;46.90
4097;DHT22;2062;50.694;7.246;2023-03-25T11:53:15;12.80;47.00
4097;DHT22;2062;50.694;7.246;2023-03-25T11:55:45;12.80;46.80
4097;DHT22;2062;50.694;7.246;2023-03-25T11:58:14;12.90;46.90
4097;DHT22;2062;50.694;7.246;2023-03-25T12:00:47;12.90;46.20
4097;DHT22;2062;50.694;7.246;2023-03-25T12:03:19;12.90;46.60
4097;DHT22;2062;50.694;7.246;2023-03-25T12:05:57;13.00;46.70
4097;DHT22;2062;50.694;7.246;2023-03-25T12:08:28;13.00;46.90
4097;DHT22;2062;50.694;7.246;2023-03-25T12:11:00;13.10;47.10
4097;DHT22;2062;50.694;7.246;2023-03-25T12:13:41;13.20;48.00
4097;DHT22;2062;50.694;7.246;2023-03-25T12:16:20;13.30;47.20
4097;DHT22;2062;50.694;7.246;2023-03-25T12:18:56;13.40;47.10
4097;DHT22;2062;50.694;7.246;2023-03-25T12:21:36;13.50;47.10
4097;DHT22;2062;50.694;7.246;2023-03-25T12:24:20;13.60;46.80
4097;DHT22;2062;50.694;7.246;2023-03-25T12:26:52;13.70;46.70
4097;DHT22;2062;50.694;7.246;2023-03-25T12:29:29;13.70;46.60
4097;DHT22;2062;50.694;7.246;2023-03-25T12:32:10;13.70;47.80
4097;DHT22;2062;50.694;7.246;2023-03-25T12:34:48;13.70;47.60
4097;DHT22;2062;50.694;7.246;2023-03-25T12:37:27;13.70;46.70
4097;DHT22;2062;50.694;7.246;2023-03-25T12:40:15;13.60;46.60
4097;DHT22;2062;50.694;7.246;2023-03-25T12:42:48;13.60;46.50
4097;DHT22;2062;50.694;7.246;2023-03-25T12:45:32;13.60;45.90
4097;DHT22;2062;50.694;7.246;2023-03-25T12:48:12;13.50;45.40
4097;DHT22;2062;50.694;7.246;2023-03-25T12:50:50;13.50;45.70
4097;DHT22;2062;50.694;7.246;2023-03-25T12:53:35;13.40;45.40
4097;DHT22;2062;50.694;7.246;2023-03-25T12:56:14;13.40;46.10
4097;DHT22;2062;50.694;7.246;2023-03-25T13:02:05;13.40;45.70
4097;DHT22;2062;50.694;7.246;2023-03-25T13:07:26;13.30;46.20
4097;DHT22;2062;50.694;7.246;2023-03-25T13:10:00;13.30;45.80
4097;DHT22;2062;50.694;7.246;2023-03-25T13:12:31;13.30;46.00
4097;DHT22;2062;50.694;7.246;2023-03-25T13:15:04;13.30;46.00
4097;DHT22;2062;50.694;7.246;2023-03-25T13:17:37;13.30;45.90
4097;DHT22;2062;50.694;7.246;2023-03-25T13:20:08;13.30;46.00
4097;DHT22;2062;50.694;7.246;2023-03-25T13:22:39;13.40;45.70
4097;DHT22;2062;50.694;7.246;2023-03-25T13:25:17;13.40;45.70
4097;DHT22;2062;50.694;7.246;2023-03-25T13:27:45;13.40;45.70
4097;DHT22;2062;50.694;7.246;2023-03-25T13:30:16;13.40;45.60
4097;DHT22;2062;50.694;7.246;2023-03-25T13:32:49;13.50;45.10
4097;DHT22;2062;50.694;7.246;2023-03-25T13:35:28;13.40;44.50
4097;DHT22;2062;50.694;7.246;2023-03-25T13:38:00;13.50;45.00
4097;DHT22;2062;50.694;7.246;2023-03-25T13:40:35;13.50;44.70
4097;DHT22;2062;50.694;7.246;2023-03-25T13:43:10;13.50;44.80
4097;DHT22;2062;50.694;7.246;2023-03-25T13:45:43;13.60;44.20
4097;DHT22;2062;50.694;7.246;2023-03-25T13:48:14;13.60;44.30
4097;DHT22;2062;50.694;7.246;2023-03-25T13:50:46;13.70;44.00
4097;DHT22;2062;50.694;7.246;2023-03-25T13:53:16;13.70;43.20
4097;DHT22;2062;50.694;7.246;2023-03-25T13:55:50;13.70;42.40
4097;DHT22;2062;50.694;7.246;2023-03-25T13:58:37;13.70;43.10
4097;DHT22;2062;50.694;7.246;2023-03-25T14:01:37;13.70;43.10
4097;DHT22;2062;50.694;7.246;2023-03-25T14:04:29;13.70;42.90
4097;DHT22;2062;50.694;7.246;2023-03-25T14:07:26;13.70;43.30
4097;DHT22;2062;50.694;7.246;2023-03-25T14:10:26;13.70;42.60
4097;DHT22;2062;50.694;7.246;2023-03-25T14:12:58;13.70;42.80
4097;DHT22;2062;50.694;7.246;2023-03-25T14:15:29;13.70;42.80
4097;DHT22;2062;50.694;7.246;2023-03-25T14:17:58;13.60;42.20
4097;DHT22;2062;50.694;7.246;2023-03-25T14:20:27;13.60;42.40
4097;DHT22;2062;50.694;7.246;2023-03-25T14:22:58;13.50;42.10
4097;DHT22;2062;50.694;7.246;2023-03-25T14:25:31;13.50;42.10
4097;DHT22;2062;50.694;7.246;2023-03-25T14:27:59;13.40;41.50
4097;DHT22;2062;50.694;7.246;2023-03-25T14:30:30;13.30;42.20
4097;DHT22;2062;50.694;7.246;2023-03-25T14:32:58;13.20;43.00
4097;DHT22;2062;50.694;7.246;2023-03-25T14:35:47;13.10;44.00
4097;DHT22;2062;50.694;7.246;2023-03-25T14:41:02;12.90;45.20
4097;DHT22;2062;50.694;7.246;2023-03-25T14:43:32;12.80;45.30
4097;DHT22;2062;50.694;7.246;2023-03-25T14:46:12;12.80;45.60
4097;DHT22;2062;50.694;7.246;2023-03-25T14:48:48;12.70;45.70
4097;DHT22;2062;50.694;7.246;2023-03-25T14:51:31;12.60;45.60
4097;DHT22;2062;50.694;7.246;2023-03-25T14:54:05;12.60;45.60
4097;DHT22;2062;50.694;7.246;2023-03-25T14:56:42;12.50;46.00
4097;DHT22;2062;50.694;7.246;2023-03-25T14:59:15;12.40;46.30
4097;DHT22;2062;50.694;7.246;2023-03-25T15:01:44;12.40;46.50
4097;DHT22;2062;50.694;7.246;2023-03-25T15:04:15;12.40;46.90
4097;DHT22;2062;50.694;7.246;2023-03-25T15:06:47;12.40;47.20
4097;DHT22;2062;50.694;7.246;2023-03-25T15:09:17;12.50;47.40
4097;DHT22;2062;50.694;7.246;2023-03-25T15:11:53;12.40;47.50
4097;DHT22;2062;50.694;7.246;2023-03-25T15:14:23;12.50;47.80
4097;DHT22;2062;50.694;7.246;2023-03-25T15:16:59;12.70;47.80
4097;DHT22;2062;50.694;7.246;2023-03-25T15:19:27;12.80;47.50
4097;DHT22;2062;50.694;7.246;2023-03-25T15:22:18;12.90;47.30
4097;DHT22;2062;50.694;7.246;2023-03-25T15:24:55;13.10;47.60
4097;DHT22;2062;50.694;7.246;2023-03-25T15:27:40;13.20;47.60
4097;DHT22;2062;50.694;7.246;2023-03-25T15:30:26;13.40;47.50
4097;DHT22;2062;50.694;7.246;2023-03-25T15:33:08;13.60;47.70
4097;DHT22;2062;50.694;7.246;2023-03-25T15:35:55;13.80;47.60
4097;DHT22;2062;50.694;7.246;2023-03-25T15:38:56;14.00;47.40
4097;DHT22;2062;50.694;7.246;2023-03-25T15:41:53;14.10;47.30
4097;DHT22;2062;50.694;7.246;2023-03-25T15:44:41;14.20;47.10
4097;DHT22;2062;50.694;7.246;2023-03-25T15:47:30;14.40;46.10
4097;DHT22;2062;50.694;7.246;2023-03-25T15:50:12;14.50;46.20
4097;DHT22;2062;50.694;7.246;2023-03-25T15:53:22;14.40;46.00
4097;DHT22;2062;50.694;7.246;2023-03-25T15:55:53;14.40;46.00
4097;DHT22;2062;50.694;7.246;2023-03-25T15:58:26;14.50;46.00
4097;DHT22;2062;50.694;7.246;2023-03-25T16:00:58;14.50;45.80
4097;DHT22;2062;50.694;7.246;2023-03-25T16:03:29;14.50;45.70
4097;DHT22;2062;50.694;7.246;2023-03-25T16:06:01;14.50;45.60
4097;DHT22;2062;50.694;7.246;2023-03-25T16:08:33;14.50;45.40
4097;DHT22;2062;50.694;7.246;2023-03-25T16:11:13;14.60;44.60
4097;DHT22;2062;50.694;7.246;2023-03-25T16:13:42;14.60;44.30
4097;DHT22;2062;50.694;7.246;2023-03-25T16:16:10;14.60;44.70
4097;DHT22;2062;50.694;7.246;2023-03-25T16:18:38;14.70;43.30
4097;DHT22;2062;50.694;7.246;2023-03-25T16:21:07;14.60;44.00
4097;DHT22;2062;50.694;7.246;2023-03-25T16:23:35;14.70;43.80
4097;DHT22;2062;50.694;7.246;2023-03-25T16:26:03;14.70;43.60
4097;DHT22;2062;50.694;7.246;2023-03-25T16:28:33;14.70;44.00
4097;DHT22;2062;50.694;7.246;2023-03-25T16:31:02;14.60;43.70
4097;DHT22;2062;50.694;7.246;2023-03-25T16:33:31;14.60;43.50
4097;DHT22;2062;50.694;7.246;2023-03-25T16:35:59;14.60;43.40
4097;DHT22;2062;50.694;7.246;2023-03-25T16:38:28;14.60;43.10
4097;DHT22;2062;50.694;7.246;2023-03-25T16:41:00;14.60;43.20
4097;DHT22;2062;50.694;7.246;2023-03-25T16:43:28;14.50;43.00
4097;DHT22;2062;50.694;7.246;2023-03-25T16:45:58;14.50;43.00
4097;DHT22;2062;50.694;7.246;2023-03-25T16:48:29;14.40;43.00
4097;DHT22;2062;50.694;7.246;2023-03-25T16:50:59;14.40;43.20
4097;DHT22;2062;50.694;7.246;2023-03-25T16:53:28;14.30;42.80
4097;DHT22;2062;50.694;7.246;2023-03-25T16:56:27;14.20;42.50